sensor_id;sensor_type;location;lat;lon;timestamp;temperature;humidity
60909;DHT22;46780;48.128;-1.704;2023-02-19T00:02:00;11.50;99.90
60909;DHT22;46780;48.128;-1.704;2023-02-19T00:04:26;11.40;99.90
60909;DHT22;46780;48.128;-1.704;2023-02-19T00:06:53;11.40;99.90
60909;DHT22;46780;48.128;-1.704;2023-02-19T00:09:19;11.40;99.90
60909;DHT22;46780;48.128;-1.704;2023-02-19T00:11:45;11.40;99.90
60909;DHT22;46780;48.128;-1.704;2023-02-19T00:14:13;11.40;99.90
60909;DHT22;46780;48.128;-1.704;2023-02-19T00:16:41;11.40;99.90
60909;DHT22;46780;48.128;-1.704;2023-02-19T00:19:10;11.40;99.90
60909;DHT22;46780;48.128;-1.704;2023-02-19T00:21:38;11.40;99.90
60909;DHT22;46780;48.128;-1.704;2023-02-19T00:24:05;11.40;99.90
60909;DHT22;46780;48.128;-1.704;2023-02-19T00:26:31;11.40;99.90
60909;DHT22;46780;48.128;-1.704;2023-02-19T00:28:58;11.30;99.90
60909;DHT22;46780;48.128;-1.704;2023-02-19T00:31:25;11.30;99.90
60909;DHT22;46780;48.128;-1.704;2023-02-19T00:33:54;11.30;99.90
60909;DHT22;46780;48.128;-1.704;2023-02-19T00:36:20;11.30;99.90
60909;DHT22;46780;48.128;-1.704;2023-02-19T00:38:46;11.30;99.90
60909;DHT22;46780;48.128;-1.704;2023-02-19T00:41:13;11.30;99.90
60909;DHT22;46780;48.128;-1.704;2023-02-19T00:43:39;11.30;99.90
60909;DHT22;46780;48.128;-1.704;2023-02-19T00:46:05;11.30;99.90
60909;DHT22;46780;48.128;-1.704;2023-02-19T00:48:31;11.30;99.90
60909;DHT22;46780;48.128;-1.704;2023-02-19T00:50:59;11.30;99.90
60909;DHT22;46780;48.128;-1.704;2023-02-19T00:53:25;11.30;99.90
60909;DHT22;46780;48.128;-1.704;2023-02-19T00:55:51;11.30;99.90
60909;DHT22;46780;48.128;-1.704;2023-02-19T00:58:18;11.20;99.90
60909;DHT22;46780;48.128;-1.704;2023-02-19T01:00:44;11.20;99.90
60909;DHT22;46780;48.128;-1.704;2023-02-19T01:03:10;11.20;99.90
60909;DHT22;46780;48.128;-1.704;2023-02-19T01:05:36;11.20;99.90
60909;DHT22;46780;48.128;-1.704;2023-02-19T01:08:04;11.20;99.90
60909;DHT22;46780;48.128;-1.704;2023-02-19T01:10:30;11.20;99.90
60909;DHT22;46780;48.128;-1.704;2023-02-19T01:12:56;11.20;99.90
60909;DHT22;46780;48.128;-1.704;2023-02-19T01:15:22;11.20;99.90
60909;DHT22;46780;48.128;-1.704;2023-02-19T01:17:48;11.10;99.90
60909;DHT22;46780;48.128;-1.704;2023-02-19T01:20:14;11.10;99.90
60909;DHT22;46780;48.128;-1.704;2023-02-19T01:22:41;11.10;99.90
60909;DHT22;46780;48.128;-1.704;2023-02-19T01:25:08;11.10;99.90
60909;DHT22;46780;48.128;-1.704;2023-02-19T01:27:34;11.10;99.90
60909;DHT22;46780;48.128;-1.704;2023-02-19T01:30:00;11.20;99.90
60909;DHT22;46780;48.128;-1.704;2023-02-19T01:32:27;11.20;99.90
60909;DHT22;46780;48.128;-1.704;2023-02-19T01:34:53;11.20;99.90
60909;DHT22;46780;48.128;-1.704;2023-02-19T01:37:19;11.20;99.90
60909;DHT22;46780;48.128;-1.704;2023-02-19T01:39:46;11.20;99.90
60909;DHT22;46780;48.128;-1.704;2023-02-19T01:42:14;11.20;99.90
60909;DHT22;46780;48.128;-1.704;2023-02-19T01:47:25;11.20;99.90
60909;DHT22;46780;48.128;-1.704;2023-02-19T01:49:52;11.20;99.90
60909;DHT22;46780;48.128;-1.704;2023-02-19T01:52:20;11.20;99.90
60909;DHT22;46780;48.128;-1.704;2023-02-19T01:54:47;11.20;99.90
60909;DHT22;46780;48.128;-1.704;2023-02-19T01:57:18;11.20;99.90
60909;DHT22;46780;48.128;-1.704;2023-02-19T01:59:45;11.20;99.90
60909;DHT22;46780;48.128;-1.704;2023-02-19T02:02:13;11.20;99.90
60909;DHT22;46780;48.128;-1.704;2023-02-19T02:04:39;11.20;99.90
60909;DHT22;46780;48.128;-1.704;2023-02-19T02:07:05;11.20;99.90
60909;DHT22;46780;48.128;-1.704;2023-02-19T02:09:32;11.20;99.90
60909;DHT22;46780;48.128;-1.704;2023-02-19T02:11:58;11.10;99.90
60909;DHT22;46780;48.128;-1.704;2023-02-19T02:14:26;11.10;99.90
60909;DHT22;46780;48.128;-1.704;2023-02-19T02:16:54;11.10;99.90
60909;DHT22;46780;48.128;-1.704;2023-02-19T02:19:29;11.10;99.90
60909;DHT22;46780;48.128;-1.704;2023-02-19T02:21:58;11.10;99.90
60909;DHT22;46780;48.128;-1.704;2023-02-19T02:24:36;11.10;99.90
60909;DHT22;46780;48.128;-1.704;2023-02-19T02:27:11;11.10;99.90
60909;DHT22;46780;48.128;-1.704;2023-02-19T02:29:57;11.00;99.90
60909;DHT22;46780;48.128;-1.704;2023-02-19T02:32:29;11.10;99.90
60909;DHT22;46780;48.128;-1.704;2023-02-19T02:34:58;11.00;99.90
60909;DHT22;46780;48.128;-1.704;2023-02-19T02:37:25;11.00;99.90
60909;DHT22;46780;48.128;-1.704;2023-02-19T02:39:53;10.90;99.90
60909;DHT22;46780;48.128;-1.704;2023-02-19T02:42:20;10.90;99.90
60909;DHT22;46780;48.128;-1.704;2023-02-19T02:44:47;11.00;99.90
60909;DHT22;46780;48.128;-1.704;2023-02-19T02:47:14;11.00;99.90
60909;DHT22;46780;48.128;-1.704;2023-02-19T02:49:40;10.90;99.90
60909;DHT22;46780;48.128;-1.704;2023-02-19T02:52:06;11.00;99.90
60909;DHT22;46780;48.128;-1.704;2023-02-19T02:54:33;10.90;99.90
60909;DHT22;46780;48.128;-1.704;2023-02-19T02:56:59;10.90;99.90
60909;DHT22;46780;48.128;-1.704;2023-02-19T02:59:26;10.90;99.90
60909;DHT22;46780;48.128;-1.704;2023-02-19T03:01:54;10.90;99.90
60909;DHT22;46780;48.128;-1.704;2023-02-19T03:04:24;10.90;99.90
60909;DHT22;46780;48.128;-1.704;2023-02-19T03:06:53;10.90;99.90
60909;DHT22;46780;48.128;-1.704;2023-02-19T03:09:23;10.90;99.90
60909;DHT22;46780;48.128;-1.704;2023-02-19T03:11:52;10.90;99.90
60909;DHT22;46780;48.128;-1.704;2023-02-19T03:14:20;10.90;99.90
60909;DHT22;46780;48.128;-1.704;2023-02-19T03:16:47;10.90;99.90
60909;DHT22;46780;48.128;-1.704;2023-02-19T03:19:16;10.90;99.90
60909;DHT22;46780;48.128;-1.704;2023-02-19T03:21:46;10.90;99.90
60909;DHT22;46780;48.128;-1.704;2023-02-19T03:24:14;11.00;99.90
60909;DHT22;46780;48.128;-1.704;2023-02-19T03:26:40;11.00;99.90
60909;DHT22;46780;48.128;-1.704;2023-02-19T03:29:08;11.00;99.90
60909;DHT22;46780;48.128;-1.704;2023-02-19T03:31:35;11.00;99.90
60909;DHT22;46780;48.128;-1.704;2023-02-19T03:34:04;11.10;99.90
60909;DHT22;46780;48.128;-1.704;2023-02-19T03:36:32;11.10;99.90
60909;DHT22;46780;48.128;-1.704;2023-02-19T03:39:03;11.10;99.90
60909;DHT22;46780;48.128;-1.704;2023-02-19T03:41:30;11.10;99.90
60909;DHT22;46780;48.128;-1.704;2023-02-19T03:44:01;11.10;99.90
60909;DHT22;46780;48.128;-1.704;2023-02-19T03:46:33;11.10;99.90
60909;DHT22;46780;48.128;-1.704;2023-02-19T03:49:02;11.10;99.90
60909;DHT22;46780;48.128;-1.704;2023-02-19T03:51:30;11.10;99.90
60909;DHT22;46780;48.128;-1.704;2023-02-19T03:54:02;11.10;99.90
60909;DHT22;46780;48.128;-1.704;2023-02-19T03:56:34;11.20;99.90
60909;DHT22;46780;48.128;-1.704;2023-02-19T03:59:04;11.20;99.90
60909;DHT22;46780;48.128;-1.704;2023-02-19T04:01:35;11.20;99.90
60909;DHT22;46780;48.128;-1.704;2023-02-19T04:04:05;11.20;99.90
60909;DHT22;46780;48.128;-1.704;2023-02-19T04:06:34;11.20;99.90
60909;DHT22;46780;48.128;-1.704;2023-02-19T04:09:05;11.30;99.90
60909;DHT22;46780;48.128;-1.704;2023-02-19T04:11:34;11.30;99.90
60909;DHT22;46780;48.128;-1.704;2023-02-19T04:14:02;11.20;99.90
60909;DHT22;46780;48.128;-1.704;2023-02-19T04:16:30;11.30;99.90
60909;DHT22;46780;48.128;-1.704;2023-02-19T04:18:59;11.30;99.90
60909;DHT22;46780;48.128;-1.704;2023-02-19T04:21:27;11.30;99.90
60909;DHT22;46780;48.128;-1.704;2023-02-19T04:23:54;11.30;99.90
60909;DHT22;46780;48.128;-1.704;2023-02-19T04:26:23;11.30;99.90
60909;DHT22;46780;48.128;-1.704;2023-02-19T04:28:49;11.30;99.90
60909;DHT22;46780;48.128;-1.704;2023-02-19T04:31:16;11.30;99.90
60909;DHT22;46780;48.128;-1.704;2023-02-19T04:33:42;11.30;99.90
60909;DHT22;46780;48.128;-1.704;2023-02-19T04:36:09;11.30;99.90
60909;DHT22;46780;48.128;-1.704;2023-02-19T04:38:35;11.30;99.90
60909;DHT22;46780;48.128;-1.704;2023-02-19T04:41:02;11.40;99.90
60909;DHT22;46780;48.128;-1.704;2023-02-19T04:43:29;11.40;99.90
60909;DHT22;46780;48.128;-1.704;2023-02-19T04:45:58;11.40;99.90
60909;DHT22;46780;48.128;-1.704;2023-02-19T04:48:24;11.40;99.90
60909;DHT22;46780;48.128;-1.704;2023-02-19T04:50:54;11.40;99.90
60909;DHT22;46780;48.128;-1.704;2023-02-19T04:53:20;11.40;99.90
60909;DHT22;46780;48.128;-1.704;2023-02-19T04:55:47;11.40;99.90
60909;DHT22;46780;48.128;-1.704;2023-02-19T04:58:13;11.40;99.90
60909;DHT22;46780;48.128;-1.704;2023-02-19T05:00:41;11.40;99.90
60909;DHT22;46780;48.128;-1.704;2023-02-19T05:03:07;11.40;99.90
60909;DHT22;46780;48.128;-1.704;2023-02-19T05:05:33;11.50;99.90
60909;DHT22;46780;48.128;-1.704;2023-02-19T05:08:00;11.40;99.90
60909;DHT22;46780;48.128;-1.704;2023-02-19T05:10:26;11.40;99.90
60909;DHT22;46780;48.128;-1.704;2023-02-19T05:12:53;11.50;99.90
60909;DHT22;46780;48.128;-1.704;2023-02-19T05:15:19;11.40;99.90
60909;DHT22;46780;48.128;-1.704;2023-02-19T05:17:47;11.50;99.90
60909;DHT22;46780;48.128;-1.704;2023-02-19T05:20:13;11.50;99.90
60909;DHT22;46780;48.128;-1.704;2023-02-19T05:22:39;11.50;99.90
60909;DHT22;46780;48.128;-1.704;2023-02-19T05:25:05;11.50;99.90
60909;DHT22;46780;48.128;-1.704;2023-02-19T05:27:31;11.40;99.90
60909;DHT22;46780;48.128;-1.704;2023-02-19T05:29:58;11.50;99.90
60909;DHT22;46780;48.128;-1.704;2023-02-19T05:32:24;11.40;99.90
60909;DHT22;46780;48.128;-1.704;2023-02-19T05:34:51;11.40;99.90
60909;DHT22;46780;48.128;-1.704;2023-02-19T05:37:17;11.40;99.90
60909;DHT22;46780;48.128;-1.704;2023-02-19T05:39:44;11.40;99.90
60909;DHT22;46780;48.128;-1.704;2023-02-19T05:42:11;11.30;99.90
60909;DHT22;46780;48.128;-1.704;2023-02-19T05:44:38;11.30;99.90
60909;DHT22;46780;48.128;-1.704;2023-02-19T05:47:04;11.30;99.90
60909;DHT22;46780;48.128;-1.704;2023-02-19T05:49:30;11.30;99.90
60909;DHT22;46780;48.128;-1.704;2023-02-19T05:51:57;11.30;99.90
60909;DHT22;46780;48.128;-1.704;2023-02-19T05:54:24;11.20;99.90
60909;DHT22;46780;48.128;-1.704;2023-02-19T05:56:50;11.20;99.90
60909;DHT22;46780;48.128;-1.704;2023-02-19T05:59:17;11.20;99.90
60909;DHT22;46780;48.128;-1.704;2023-02-19T06:01:44;11.30;99.90
60909;DHT22;46780;48.128;-1.704;2023-02-19T06:04:10;11.30;99.90
60909;DHT22;46780;48.128;-1.704;2023-02-19T06:06:37;11.20;99.90
60909;DHT22;46780;48.128;-1.704;2023-02-19T06:09:05;11.20;99.90
60909;DHT22;46780;48.128;-1.704;2023-02-19T06:11:31;11.20;99.90
60909;DHT22;46780;48.128;-1.704;2023-02-19T06:13:57;11.10;99.90
60909;DHT22;46780;48.128;-1.704;2023-02-19T06:16:23;11.10;99.90
60909;DHT22;46780;48.128;-1.704;2023-02-19T06:18:49;11.10;99.90
60909;DHT22;46780;48.128;-1.704;2023-02-19T06:21:16;11.00;99.90
60909;DHT22;46780;48.128;-1.704;2023-02-19T06:23:43;11.00;99.90
60909;DHT22;46780;48.128;-1.704;2023-02-19T06:26:11;10.90;99.90
60909;DHT22;46780;48.128;-1.704;2023-02-19T06:28:38;10.90;99.90
60909;DHT22;46780;48.128;-1.704;2023-02-19T06:31:05;10.90;99.90
60909;DHT22;46780;48.128;-1.704;2023-02-19T06:33:31;10.90;99.90
60909;DHT22;46780;48.128;-1.704;2023-02-19T06:35:57;10.90;99.90
60909;DHT22;46780;48.128;-1.704;2023-02-19T06:38:24;10.90;99.90
60909;DHT22;46780;48.128;-1.704;2023-02-19T06:40:50;10.90;99.90
60909;DHT22;46780;48.128;-1.704;2023-02-19T06:43:18;10.90;99.90
60909;DHT22;46780;48.128;-1.704;2023-02-19T06:45:44;10.90;99.90
60909;DHT22;46780;48.128;-1.704;2023-02-19T06:48:10;10.90;99.90
60909;DHT22;46780;48.128;-1.704;2023-02-19T06:50:36;10.90;99.90
60909;DHT22;46780;48.128;-1.704;2023-02-19T06:53:02;10.90;99.90
60909;DHT22;46780;48.128;-1.704;2023-02-19T06:55:28;10.90;99.90
60909;DHT22;46780;48.128;-1.704;2023-02-19T06:57:55;10.90;99.90
60909;DHT22;46780;48.128;-1.704;2023-02-19T07:00:22;10.90;99.90
60909;DHT22;46780;48.128;-1.704;2023-02-19T07:02:48;10.90;99.90
60909;DHT22;46780;48.128;-1.704;2023-02-19T07:05:15;10.90;99.90
60909;DHT22;46780;48.128;-1.704;2023-02-19T07:07:41;10.90;99.90
60909;DHT22;46780;48.128;-1.704;2023-02-19T07:10:07;10.90;99.90
60909;DHT22;46780;48.128;-1.704;2023-02-19T07:12:33;10.90;99.90
60909;DHT22;46780;48.128;-1.704;2023-02-19T07:14:59;10.90;99.90
60909;DHT22;46780;48.128;-1.704;2023-02-19T07:17:27;10.90;99.90
60909;DHT22;46780;48.128;-1.704;2023-02-19T07:19:53;10.90;99.90
60909;DHT22;46780;48.128;-1.704;2023-02-19T07:22:19;10.90;99.90
60909;DHT22;46780;48.128;-1.704;2023-02-19T07:24:45;10.90;99.90
60909;DHT22;46780;48.128;-1.704;2023-02-19T07:27:11;11.00;99.90
60909;DHT22;46780;48.128;-1.704;2023-02-19T07:29:38;10.90;99.90
60909;DHT22;46780;48.128;-1.704;2023-02-19T07:32:04;10.90;99.90
60909;DHT22;46780;48.128;-1.704;2023-02-19T07:34:31;10.90;99.90
60909;DHT22;46780;48.128;-1.704;2023-02-19T07:36:57;11.00;99.90
60909;DHT22;46780;48.128;-1.704;2023-02-19T07:39:24;10.90;99.90
60909;DHT22;46780;48.128;-1.704;2023-02-19T07:41:50;10.90;99.90
60909;DHT22;46780;48.128;-1.704;2023-02-19T07:44:16;10.90;99.90
60909;DHT22;46780;48.128;-1.704;2023-02-19T07:46:42;11.00;99.90
60909;DHT22;46780;48.128;-1.704;2023-02-19T07:49:08;11.00;99.90
60909;DHT22;46780;48.128;-1.704;2023-02-19T07:51:36;11.00;99.90
60909;DHT22;46780;48.128;-1.704;2023-02-19T07:54:02;11.00;99.90
60909;DHT22;46780;48.128;-1.704;2023-02-19T07:56:28;11.00;99.90
60909;DHT22;46780;48.128;-1.704;2023-02-19T07:58:54;11.00;99.90
60909;DHT22;46780;48.128;-1.704;2023-02-19T08:01:21;11.00;99.90
60909;DHT22;46780;48.128;-1.704;2023-02-19T08:03:48;10.90;99.90
60909;DHT22;46780;48.128;-1.704;2023-02-19T08:06:14;11.00;99.90
60909;DHT22;46780;48.128;-1.704;2023-02-19T08:08:41;11.00;99.90
60909;DHT22;46780;48.128;-1.704;2023-02-19T08:11:08;11.00;99.90
60909;DHT22;46780;48.128;-1.704;2023-02-19T08:13:34;11.00;99.90
60909;DHT22;46780;48.128;-1.704;2023-02-19T08:16:11;11.00;99.90
60909;DHT22;46780;48.128;-1.704;2023-02-19T08:18:37;11.10;99.90
60909;DHT22;46780;48.128;-1.704;2023-02-19T08:21:04;11.10;99.90
60909;DHT22;46780;48.128;-1.704;2023-02-19T08:23:30;11.10;99.90
60909;DHT22;46780;48.128;-1.704;2023-02-19T08:25:58;11.10;99.90
60909;DHT22;46780;48.128;-1.704;2023-02-19T08:28:25;11.10;99.90
60909;DHT22;46780;48.128;-1.704;2023-02-19T08:30:51;11.20;99.90
60909;DHT22;46780;48.128;-1.704;2023-02-19T08:33:18;11.10;99.90
60909;DHT22;46780;48.128;-1.704;2023-02-19T08:35:45;11.10;99.90
60909;DHT22;46780;48.128;-1.704;2023-02-19T08:38:12;11.10;99.90
60909;DHT22;46780;48.128;-1.704;2023-02-19T08:40:39;11.10;99.90
60909;DHT22;46780;48.128;-1.704;2023-02-19T08:43:07;11.20;99.90
60909;DHT22;46780;48.128;-1.704;2023-02-19T08:45:35;11.20;99.90
60909;DHT22;46780;48.128;-1.704;2023-02-19T08:48:01;11.20;99.90
60909;DHT22;46780;48.128;-1.704;2023-02-19T08:50:27;11.30;99.90
60909;DHT22;46780;48.128;-1.704;2023-02-19T08:52:54;11.30;99.90
60909;DHT22;46780;48.128;-1.704;2023-02-19T08:55:20;11.30;99.90
60909;DHT22;46780;48.128;-1.704;2023-02-19T08:57:46;11.40;99.90
60909;DHT22;46780;48.128;-1.704;2023-02-19T09:00:15;11.40;99.90
60909;DHT22;46780;48.128;-1.704;2023-02-19T09:02:41;11.40;99.90
60909;DHT22;46780;48.128;-1.704;2023-02-19T09:05:07;11.50;99.90
60909;DHT22;46780;48.128;-1.704;2023-02-19T09:07:33;11.50;99.90
60909;DHT22;46780;48.128;-1.704;2023-02-19T09:09:59;11.50;99.90
60909;DHT22;46780;48.128;-1.704;2023-02-19T09:12:26;11.60;99.90
60909;DHT22;46780;48.128;-1.704;2023-02-19T09:14:52;11.60;99.80
60909;DHT22;46780;48.128;-1.704;2023-02-19T09:17:19;11.60;99.60
60909;DHT22;46780;48.128;-1.704;2023-02-19T09:19:46;11.60;99.20
60909;DHT22;46780;48.128;-1.704;2023-02-19T09:22:12;11.60;99.20
60909;DHT22;46780;48.128;-1.704;2023-02-19T09:24:38;11.60;99.30
60909;DHT22;46780;48.128;-1.704;2023-02-19T09:27:04;11.70;99.10
60909;DHT22;46780;48.128;-1.704;2023-02-19T09:29:30;11.70;98.90
60909;DHT22;46780;48.128;-1.704;2023-02-19T09:31:57;11.70;98.80
60909;DHT22;46780;48.128;-1.704;2023-02-19T09:34:25;11.80;98.40
60909;DHT22;46780;48.128;-1.704;2023-02-19T09:36:51;11.80;98.10
60909;DHT22;46780;48.128;-1.704;2023-02-19T09:39:18;11.80;97.90
60909;DHT22;46780;48.128;-1.704;2023-02-19T09:41:45;11.80;97.90
60909;DHT22;46780;48.128;-1.704;2023-02-19T09:44:12;11.80;97.80
60909;DHT22;46780;48.128;-1.704;2023-02-19T09:46:41;11.90;97.90
60909;DHT22;46780;48.128;-1.704;2023-02-19T09:49:10;11.90;98.00
60909;DHT22;46780;48.128;-1.704;2023-02-19T09:51:39;11.90;98.20
60909;DHT22;46780;48.128;-1.704;2023-02-19T09:54:06;12.00;98.10
60909;DHT22;46780;48.128;-1.704;2023-02-19T09:56:36;12.00;98.00
60909;DHT22;46780;48.128;-1.704;2023-02-19T09:59:02;12.10;97.90
60909;DHT22;46780;48.128;-1.704;2023-02-19T10:01:29;12.10;97.80
60909;DHT22;46780;48.128;-1.704;2023-02-19T10:03:57;12.20;97.60
60909;DHT22;46780;48.128;-1.704;2023-02-19T10:06:24;12.20;97.50
60909;DHT22;46780;48.128;-1.704;2023-02-19T10:08:53;12.30;97.20
60909;DHT22;46780;48.128;-1.704;2023-02-19T10:11:20;12.30;97.10
60909;DHT22;46780;48.128;-1.704;2023-02-19T10:13:48;12.30;96.90
60909;DHT22;46780;48.128;-1.704;2023-02-19T10:16:16;12.30;96.60
60909;DHT22;46780;48.128;-1.704;2023-02-19T10:18:43;12.40;96.50
60909;DHT22;46780;48.128;-1.704;2023-02-19T10:21:10;12.40;96.20
60909;DHT22;46780;48.128;-1.704;2023-02-19T10:23:37;12.50;96.00
60909;DHT22;46780;48.128;-1.704;2023-02-19T10:26:05;12.50;96.00
60909;DHT22;46780;48.128;-1.704;2023-02-19T10:28:32;12.50;95.80
60909;DHT22;46780;48.128;-1.704;2023-02-19T10:30:59;12.50;95.80
60909;DHT22;46780;48.128;-1.704;2023-02-19T10:33:26;12.60;95.60
60909;DHT22;46780;48.128;-1.704;2023-02-19T10:35:53;12.70;95.40
60909;DHT22;46780;48.128;-1.704;2023-02-19T10:38:20;12.60;95.20
60909;DHT22;46780;48.128;-1.704;2023-02-19T10:40:47;12.60;94.90
60909;DHT22;46780;48.128;-1.704;2023-02-19T10:43:21;12.60;94.60
60909;DHT22;46780;48.128;-1.704;2023-02-19T10:45:47;12.60;94.70
60909;DHT22;46780;48.128;-1.704;2023-02-19T10:48:20;12.70;95.00
60909;DHT22;46780;48.128;-1.704;2023-02-19T10:50:47;12.70;94.50
60909;DHT22;46780;48.128;-1.704;2023-02-19T10:53:19;12.80;94.20
60909;DHT22;46780;48.128;-1.704;2023-02-19T10:55:45;12.80;94.10
60909;DHT22;46780;48.128;-1.704;2023-02-19T10:58:21;12.90;94.10
60909;DHT22;46780;48.128;-1.704;2023-02-19T11:00:47;12.90;93.50
60909;DHT22;46780;48.128;-1.704;2023-02-19T11:03:18;13.00;93.00
60909;DHT22;46780;48.128;-1.704;2023-02-19T11:08:29;13.00;92.90
60909;DHT22;46780;48.128;-1.704;2023-02-19T11:10:55;13.00;92.80
60909;DHT22;46780;48.128;-1.704;2023-02-19T11:13:25;13.00;93.10
60909;DHT22;46780;48.128;-1.704;2023-02-19T11:15:53;13.00;93.20
60909;DHT22;46780;48.128;-1.704;2023-02-19T11:18:20;13.10;93.20
60909;DHT22;46780;48.128;-1.704;2023-02-19T11:20:47;13.10;92.90
60909;DHT22;46780;48.128;-1.704;2023-02-19T11:23:14;13.20;92.30
60909;DHT22;46780;48.128;-1.704;2023-02-19T11:25:43;13.20;91.80
60909;DHT22;46780;48.128;-1.704;2023-02-19T11:28:21;13.20;92.10
60909;DHT22;46780;48.128;-1.704;2023-02-19T11:30:49;13.20;92.40
60909;DHT22;46780;48.128;-1.704;2023-02-19T11:33:23;13.30;91.90
60909;DHT22;46780;48.128;-1.704;2023-02-19T11:35:50;13.20;91.40
60909;DHT22;46780;48.128;-1.704;2023-02-19T11:38:17;13.20;91.40
60909;DHT22;46780;48.128;-1.704;2023-02-19T11:40:44;13.20;91.30
60909;DHT22;46780;48.128;-1.704;2023-02-19T11:43:19;13.20;91.10
60909;DHT22;46780;48.128;-1.704;2023-02-19T11:45:51;13.20;91.10
60909;DHT22;46780;48.128;-1.704;2023-02-19T11:48:23;13.10;91.20
60909;DHT22;46780;48.128;-1.704;2023-02-19T11:50:55;13.10;91.40
60909;DHT22;46780;48.128;-1.704;2023-02-19T11:53:26;13.20;91.60
60909;DHT22;46780;48.128;-1.704;2023-02-19T11:55:56;13.20;91.50
60909;DHT22;46780;48.128;-1.704;2023-02-19T11:58:35;13.30;91.60
60909;DHT22;46780;48.128;-1.704;2023-02-19T12:01:07;13.30;91.30
60909;DHT22;46780;48.128;-1.704;2023-02-19T12:06:18;13.30;90.90
60909;DHT22;46780;48.128;-1.704;2023-02-19T12:08:52;13.40;90.70
60909;DHT22;46780;48.128;-1.704;2023-02-19T12:11:27;13.40;90.30
60909;DHT22;46780;48.128;-1.704;2023-02-19T12:14:10;13.40;90.20
60909;DHT22;46780;48.128;-1.704;2023-02-19T12:16:42;13.50;90.30
60909;DHT22;46780;48.128;-1.704;2023-02-19T12:19:18;13.50;90.50
60909;DHT22;46780;48.128;-1.704;2023-02-19T12:21:49;13.50;90.50
60909;DHT22;46780;48.128;-1.704;2023-02-19T12:24:31;13.60;90.30
60909;DHT22;46780;48.128;-1.704;2023-02-19T12:27:06;13.70;90.10
60909;DHT22;46780;48.128;-1.704;2023-02-19T12:29:39;13.70;90.00
60909;DHT22;46780;48.128;-1.704;2023-02-19T12:32:18;13.80;89.40
60909;DHT22;46780;48.128;-1.704;2023-02-19T12:35:09;13.80;88.40
60909;DHT22;46780;48.128;-1.704;2023-02-19T12:37:40;13.80;88.20
60909;DHT22;46780;48.128;-1.704;2023-02-19T12:40:15;14.00;89.10
60909;DHT22;46780;48.128;-1.704;2023-02-19T12:42:46;14.10;89.20
60909;DHT22;46780;48.128;-1.704;2023-02-19T12:45:15;14.20;87.80
60909;DHT22;46780;48.128;-1.704;2023-02-19T12:47:44;14.30;85.60
60909;DHT22;46780;48.128;-1.704;2023-02-19T12:50:13;14.40;85.10
60909;DHT22;46780;48.128;-1.704;2023-02-19T12:52:43;14.50;84.30
60909;DHT22;46780;48.128;-1.704;2023-02-19T12:55:17;14.40;84.60
60909;DHT22;46780;48.128;-1.704;2023-02-19T12:57:45;14.40;84.20
60909;DHT22;46780;48.128;-1.704;2023-02-19T13:00:16;14.50;83.90
60909;DHT22;46780;48.128;-1.704;2023-02-19T13:02:47;14.60;84.00
60909;DHT22;46780;48.128;-1.704;2023-02-19T13:05:18;14.90;84.40
60909;DHT22;46780;48.128;-1.704;2023-02-19T13:07:47;15.40;84.90
60909;DHT22;46780;48.128;-1.704;2023-02-19T13:10:20;16.00;80.40
60909;DHT22;46780;48.128;-1.704;2023-02-19T13:12:48;16.30;77.30
60909;DHT22;46780;48.128;-1.704;2023-02-19T13:15:16;16.70;77.30
60909;DHT22;46780;48.128;-1.704;2023-02-19T13:17:44;17.40;73.30
60909;DHT22;46780;48.128;-1.704;2023-02-19T13:22:43;18.20;68.80
60909;DHT22;46780;48.128;-1.704;2023-02-19T13:25:11;18.40;64.40
60909;DHT22;46780;48.128;-1.704;2023-02-19T13:27:42;18.80;66.50
60909;DHT22;46780;48.128;-1.704;2023-02-19T13:30:11;19.40;62.90
60909;DHT22;46780;48.128;-1.704;2023-02-19T13:32:52;19.90;60.80
60909;DHT22;46780;48.128;-1.704;2023-02-19T13:35:24;20.40;56.40
60909;DHT22;46780;48.128;-1.704;2023-02-19T13:37:53;20.80;55.00
60909;DHT22;46780;48.128;-1.704;2023-02-19T13:40:23;20.50;52.50
60909;DHT22;46780;48.128;-1.704;2023-02-19T13:42:51;20.30;53.40
60909;DHT22;46780;48.128;-1.704;2023-02-19T13:45:20;20.00;53.50
60909;DHT22;46780;48.128;-1.704;2023-02-19T13:47:47;19.80;53.30
60909;DHT22;46780;48.128;-1.704;2023-02-19T13:50:18;19.60;54.20
60909;DHT22;46780;48.128;-1.704;2023-02-19T13:52:44;19.50;54.90
60909;DHT22;46780;48.128;-1.704;2023-02-19T14:03:26;20.20;53.20
60909;DHT22;46780;48.128;-1.704;2023-02-19T14:05:57;20.50;53.30
60909;DHT22;46780;48.128;-1.704;2023-02-19T14:11:04;21.20;50.80
60909;DHT22;46780;48.128;-1.704;2023-02-19T14:16:30;21.20;49.30
60909;DHT22;46780;48.128;-1.704;2023-02-19T14:18:58;20.70;48.80
60909;DHT22;46780;48.128;-1.704;2023-02-19T14:21:25;20.60;49.80
60909;DHT22;46780;48.128;-1.704;2023-02-19T14:23:58;20.80;50.60
60909;DHT22;46780;48.128;-1.704;2023-02-19T14:26:25;21.10;50.00
60909;DHT22;46780;48.128;-1.704;2023-02-19T14:28:52;21.20;48.20
60909;DHT22;46780;48.128;-1.704;2023-02-19T14:31:25;21.30;49.10
60909;DHT22;46780;48.128;-1.704;2023-02-19T14:33:52;21.50;48.00
60909;DHT22;46780;48.128;-1.704;2023-02-19T14:36:25;21.60;47.70
60909;DHT22;46780;48.128;-1.704;2023-02-19T14:38:52;21.60;47.00
60909;DHT22;46780;48.128;-1.704;2023-02-19T14:41:19;21.60;46.90
60909;DHT22;46780;48.128;-1.704;2023-02-19T14:43:46;21.50;47.30
60909;DHT22;46780;48.128;-1.704;2023-02-19T14:46:14;21.50;46.60
60909;DHT22;46780;48.128;-1.704;2023-02-19T14:48:43;21.50;47.30
60909;DHT22;46780;48.128;-1.704;2023-02-19T14:51:11;21.50;46.70
60909;DHT22;46780;48.128;-1.704;2023-02-19T14:53:40;21.60;46.20
60909;DHT22;46780;48.128;-1.704;2023-02-19T14:56:14;21.60;45.60
60909;DHT22;46780;48.128;-1.704;2023-02-19T14:58:43;21.50;46.00
60909;DHT22;46780;48.128;-1.704;2023-02-19T15:01:23;21.40;46.00
60909;DHT22;46780;48.128;-1.704;2023-02-19T15:03:52;21.50;46.40
60909;DHT22;46780;48.128;-1.704;2023-02-19T15:06:18;21.60;47.00
60909;DHT22;46780;48.128;-1.704;2023-02-19T15:08:47;21.50;46.60
60909;DHT22;46780;48.128;-1.704;2023-02-19T15:11:14;21.40;46.30
60909;DHT22;46780;48.128;-1.704;2023-02-19T15:13:42;21.10;46.70
60909;DHT22;46780;48.128;-1.704;2023-02-19T15:16:08;20.90;46.90
60909;DHT22;46780;48.128;-1.704;2023-02-19T15:18:34;20.70;47.60
60909;DHT22;46780;48.128;-1.704;2023-02-19T15:21:02;20.50;48.20
60909;DHT22;46780;48.128;-1.704;2023-02-19T15:23:29;20.40;48.80
60909;DHT22;46780;48.128;-1.704;2023-02-19T15:25:57;20.30;49.00
60909;DHT22;46780;48.128;-1.704;2023-02-19T15:28:27;20.10;48.90
60909;DHT22;46780;48.128;-1.704;2023-02-19T15:31:02;20.00;49.30
60909;DHT22;46780;48.128;-1.704;2023-02-19T15:33:28;19.80;49.70
60909;DHT22;46780;48.128;-1.704;2023-02-19T15:35:55;19.60;50.00
60909;DHT22;46780;48.128;-1.704;2023-02-19T15:38:21;19.40;50.60
60909;DHT22;46780;48.128;-1.704;2023-02-19T15:40:48;19.30;51.20
60909;DHT22;46780;48.128;-1.704;2023-02-19T15:43:22;19.30;51.30
60909;DHT22;46780;48.128;-1.704;2023-02-19T15:45:49;19.20;51.60